Time;durP1;ratioP1;P1;durP2;ratioP2;P2;SDS_P1;SDS_P2;PMS_P1;PMS_P2;Temp;Humidity;BMP_temperature;BMP_pressure;BME280_temperature;BME280_humidity;BME280_pressure;Samples;Min_cycle;Max_cycle;Signal;HPM_P1;HPM_P2
2022/11/27 00:04:50;;;;;;;9.37;7.30;;;;;;;3.95;100.00;98882.56;18300052;32;20425;-63
2022/11/27 00:14:52;;;;;;;11.43;8.50;;;;;;;3.77;100.00;98859.84;18286209;32;20068;-63
2022/11/27 00:24:56;;;;;;;13.00;9.63;;;;;;;3.69;100.00;98857.34;18299761;32;20489;-63
2022/11/27 00:34:59;;;;;;;13.70;9.20;;;;;;;3.49;100.00;98846.50;18299206;32;20057;-64
2022/11/27 00:45:01;;;;;;;14.77;9.10;;;;;;;3.26;100.00;98826.16;18298672;32;20453;-63
2022/11/27 00:55:05;;;;;;;9.33;7.30;;;;;;;3.09;100.00;98819.47;18297663;32;20073;-63
2022/11/27 01:05:07;;;;;;;10.73;7.03;;;;;;;2.93;100.00;98804.53;18284174;32;20121;-63
2022/11/27 01:15:10;;;;;;;9.17;6.63;;;;;;;2.88;100.00;98821.97;18282916;32;20073;-63
2022/11/27 01:25:13;;;;;;;10.77;7.63;;;;;;;2.81;100.00;98794.38;18296985;32;20055;-63
2022/11/27 01:35:15;;;;;;;12.07;8.00;;;;;;;2.78;100.00;98769.88;18282830;32;20074;-63
2022/11/27 01:45:20;;;;;;;12.07;8.80;;;;;;;2.74;100.00;98780.13;18295778;32;20065;-63
2022/11/27 01:55:29;;;;;;;7.87;6.37;;;;;;;2.68;100.00;98802.25;18294725;32;20053;-63
2022/11/27 02:05:32;;;;;;;11.37;8.07;;;;;;;2.53;100.00;98772.94;18295295;32;20070;-63
2022/11/27 02:16:16;;;;;;;10.50;8.07;;;;;;;2.36;100.00;98746.50;18294491;32;20053;-63
2022/11/27 02:26:53;;;;;;;10.80;8.43;;;;;;;2.36;100.00;98735.81;18302847;32;20073;-63
2022/11/27 02:37:18;;;;;;;11.30;7.87;;;;;;;2.26;100.00;98735.31;18305176;32;20143;-63
2022/11/27 02:47:21;;;;;;;9.87;7.60;;;;;;;2.13;100.00;98711.16;18290853;32;20066;-63
2022/11/27 02:57:25;;;;;;;11.67;8.33;;;;;;;1.91;100.00;98715.66;18303601;32;20128;-63
2022/11/27 03:07:44;;;;;;;9.77;7.30;;;;;;;1.64;100.00;98700.16;18303563;32;20065;-63
2022/11/27 03:18:17;;;;;;;8.60;6.27;;;;;;;1.42;100.00;98693.94;18302972;32;20109;-63
2022/11/27 03:28:21;;;;;;;9.00;6.53;;;;;;;1.32;100.00;98672.91;18296750;32;20066;-63
2022/11/27 03:38:24;;;;;;;6.40;5.10;;;;;;;1.36;100.00;98665.38;18301034;32;20072;-63
2022/11/27 03:48:45;;;;;;;7.30;5.47;;;;;;;1.40;100.00;98671.12;18301587;32;20058;-63
2022/11/27 03:59:12;;;;;;;8.60;6.13;;;;;;;1.34;100.00;98657.56;18287150;32;20350;-63
2022/11/27 04:09:15;;;;;;;9.97;6.43;;;;;;;1.45;100.00;98661.59;18300783;32;20058;-63
2022/11/27 04:19:17;;;;;;;9.07;5.80;;;;;;;1.52;100.00;98653.66;18286539;32;20441;-63
2022/11/27 04:29:20;;;;;;;8.00;5.27;;;;;;;1.56;100.00;98654.13;18286089;32;20054;-63
2022/11/27 04:39:23;;;;;;;8.57;5.20;;;;;;;1.58;100.00;98681.44;18299046;32;20136;-63
2022/11/27 04:49:25;;;;;;;8.13;5.90;;;;;;;1.56;100.00;98662.94;18298445;32;20457;-63
2022/11/27 04:59:29;;;;;;;6.37;4.53;;;;;;;1.50;100.00;98677.03;18297847;32;20065;-63
2022/11/27 05:09:31;;;;;;;7.27;5.03;;;;;;;1.51;100.00;98660.84;18297723;32;20102;-63
2022/11/27 05:19:33;;;;;;;6.63;4.40;;;;;;;1.49;100.00;98667.37;18297186;32;20059;-63
2022/11/27 05:29:38;;;;;;;6.70;4.77;;;;;;;1.49;100.00;98670.03;18282385;32;20106;-63
2022/11/27 05:39:41;;;;;;;6.90;4.85;;;;;;;1.45;100.00;98644.75;18296709;32;20062;-63
2022/11/27 05:49:43;;;;;;;8.10;5.13;;;;;;;1.37;100.00;98642.22;18296172;32;20084;-63
2022/11/27 05:59:46;;;;;;;7.07;4.77;;;;;;;1.21;100.00;98644.06;18294661;32;20453;-63
2022/11/27 06:09:49;;;;;;;6.63;4.70;;;;;;;1.12;100.00;98642.50;18294750;32;20093;-63
2022/11/27 06:19:52;;;;;;;7.27;4.53;;;;;;;1.05;100.00;98625.62;18294494;32;20090;-63
2022/11/27 06:29:54;;;;;;;7.30;4.30;;;;;;;0.88;100.00;98607.19;18280424;32;20101;-63
2022/11/27 06:39:57;;;;;;;7.10;4.60;;;;;;;0.63;100.00;98593.31;18280144;32;20098;-63
2022/11/27 06:49:59;;;;;;;7.50;5.07;;;;;;;0.54;100.00;98618.38;18293399;32;20121;-63
2022/11/27 07:00:04;;;;;;;7.37;4.30;;;;;;;0.61;100.00;98624.62;18292670;32;20418;-63
2022/11/27 07:10:08;;;;;;;7.50;5.20;;;;;;;0.75;100.00;98613.13;18298445;32;20068;-63
2022/11/27 07:20:11;;;;;;;11.13;5.23;;;;;;;0.90;100.00;98602.47;18288939;32;20058;-63
2022/11/27 07:30:16;;;;;;;7.30;5.23;;;;;;;1.06;100.00;98605.97;18302682;32;20070;-63
2022/11/27 07:40:18;;;;;;;7.60;5.43;;;;;;;1.27;100.00;98608.69;18301896;32;20054;-63
2022/11/27 07:50:21;;;;;;;8.90;5.33;;;;;;;1.39;100.00;98606.37;18301695;32;20370;-63
2022/11/27 08:00:24;;;;;;;8.53;5.93;;;;;;;1.47;100.00;98603.59;18300731;32;20099;-63
2022/11/27 08:10:27;;;;;;;7.67;5.87;;;;;;;1.51;100.00;98586.22;18300400;32;20362;-63
2022/11/27 08:20:29;;;;;;;11.10;6.87;;;;;;;1.48;100.00;98577.75;18299497;32;20094;-63
2022/11/27 08:30:32;;;;;;;15.57;9.80;;;;;;;1.45;100.00;98591.47;18299318;32;20046;-63
2022/11/27 08:40:34;;;;;;;16.03;9.77;;;;;;;1.68;100.00;98594.78;18298915;32;20467;-63
2022/11/27 08:50:38;;;;;;;14.10;9.47;;;;;;;1.99;100.00;98580.31;18298583;32;20058;-63
2022/11/27 09:00:41;;;;;;;15.20;10.10;;;;;;;2.28;100.00;98569.66;18297887;32;20399;-63
2022/11/27 09:10:45;;;;;;;15.83;9.50;;;;;;;2.82;100.00;98573.47;18297259;32;20058;-63
2022/11/27 09:21:02;;;;;;;12.53;8.40;;;;;;;3.60;100.00;98572.31;18296846;32;20097;-63
2022/11/27 09:31:07;;;;;;;14.03;9.37;;;;;;;4.41;100.00;98556.09;18282410;32;20081;-64
2022/11/27 09:41:10;;;;;;;16.77;9.45;;;;;;;4.70;100.00;98543.28;18269550;32;20058;-63
2022/11/27 09:51:32;;;;;;;10.63;8.00;;;;;;;4.86;100.00;98554.56;18295681;32;20054;-63
2022/11/27 10:01:36;;;;;;;14.73;9.13;;;;;;;5.11;100.00;98548.47;18294966;32;20066;-63
2022/11/27 10:12:08;;;;;;;14.57;8.77;;;;;;;5.46;100.00;98521.28;18294978;32;20061;-63
2022/11/27 10:22:26;;;;;;;13.37;8.57;;;;;;;5.53;100.00;98498.72;18294399;32;20069;-63
2022/11/27 10:32:33;;;;;;;14.00;8.63;;;;;;;5.70;100.00;98506.25;18294417;32;20070;-63
2022/11/27 10:43:17;;;;;;;13.63;8.60;;;;;;;5.94;100.00;98483.16;18297047;32;20106;-63
2022/11/27 10:53:30;;;;;;;13.20;7.73;;;;;;;6.19;100.00;98458.19;18290028;32;20057;-63
2022/11/27 11:03:34;;;;;;;13.10;7.80;;;;;;;6.28;100.00;98457.66;18290197;32;20050;-63
2022/11/27 11:13:40;;;;;;;12.23;8.17;;;;;;;6.49;100.00;98444.03;18303321;32;20078;-63
2022/11/27 11:23:45;;;;;;;11.67;7.43;;;;;;;6.70;100.00;98419.38;18303239;32;20046;-63
2022/11/27 11:33:57;;;;;;;12.67;7.10;;;;;;;6.92;100.00;98398.19;18302398;32;20054;-63
2022/11/27 11:44:01;;;;;;;11.73;7.43;;;;;;;6.99;100.00;98391.88;18302327;32;20076;-63
2022/11/27 11:54:34;;;;;;;13.40;6.93;;;;;;;7.10;100.00;98370.44;18300409;32;20054;-63
2022/11/27 12:05:06;;;;;;;12.13;7.10;;;;;;;7.16;97.86;98343.66;18287220;32;20106;-62
2022/11/27 12:15:33;;;;;;;10.90;7.30;;;;;;;7.31;100.00;98329.78;18287352;32;20066;-62
2022/11/27 12:26:00;;;;;;;11.20;6.80;;;;;;;7.45;99.63;98315.03;18300163;32;20054;-63
2022/11/27 12:36:27;;;;;;;12.20;6.80;;;;;;;7.54;96.14;98310.94;18299300;32;20375;-63
2022/11/27 12:46:58;;;;;;;12.67;7.43;;;;;;;7.40;94.82;98290.69;18284674;32;20102;-63
2022/11/27 12:57:07;;;;;;;12.00;6.60;;;;;;;7.35;96.83;98255.63;18298634;32;20091;-63
2022/11/27 13:07:19;;;;;;;13.07;7.37;;;;;;;7.34;98.37;98238.63;18284951;32;20072;-63
2022/11/27 13:17:28;;;;;;;12.63;7.67;;;;;;;7.20;98.01;98237.25;18297376;32;20117;-63
2022/11/27 13:27:35;;;;;;;14.40;7.07;;;;;;;7.10;97.93;98222.50;18282989;32;20062;-63
2022/11/27 13:37:41;;;;;;;12.03;7.80;;;;;;;7.00;100.00;98198.06;18296672;32;20076;-63
2022/11/27 13:47:44;;;;;;;11.97;8.10;;;;;;;6.86;99.48;98169.78;18295649;32;20049;-63
2022/11/27 13:57:52;;;;;;;11.80;7.90;;;;;;;6.81;99.89;98158.91;18294819;32;20074;-63
2022/11/27 14:07:56;;;;;;;13.57;7.90;;;;;;;6.73;100.00;98139.41;18281391;32;20054;-63
2022/11/27 14:18:20;;;;;;;11.73;7.70;;;;;;;6.59;100.00;98119.16;18293893;32;20102;-63
2022/11/27 14:28:25;;;;;;;11.50;7.20;;;;;;;6.53;100.00;98110.16;18294286;32;20125;-63
2022/11/27 14:38:29;;;;;;;13.27;8.53;;;;;;;6.47;100.00;98102.22;18293530;32;20094;-63
2022/11/27 14:48:47;;;;;;;13.03;8.33;;;;;;;6.40;100.00;98089.75;18293102;32;20066;-63
2022/11/27 14:58:53;;;;;;;13.23;7.67;;;;;;;6.30;100.00;98077.94;18279181;32;20121;-63
2022/11/27 15:08:59;;;;;;;13.10;7.43;;;;;;;6.19;100.00;98076.88;18292830;32;20062;-62
2022/11/27 15:19:30;;;;;;;11.87;7.40;;;;;;;6.09;100.00;98077.44;18278280;32;20095;-62
2022/11/27 15:29:35;;;;;;;13.20;8.47;;;;;;;5.85;100.00;98063.09;18282127;32;20046;-63
2022/11/27 15:39:46;;;;;;;13.63;8.97;;;;;;;5.63;100.00;98060.94;18302134;32;20150;-63
2022/11/27 15:49:50;;;;;;;15.00;8.60;;;;;;;5.41;100.00;98045.38;18288479;32;20327;-63
2022/11/27 15:59:53;;;;;;;14.20;8.07;;;;;;;5.37;100.00;98022.75;18287858;32;20113;-63
2022/11/27 16:09:56;;;;;;;14.13;8.37;;;;;;;5.31;100.00;98028.19;18300801;32;20338;-63
2022/11/27 16:19:59;;;;;;;15.97;8.83;;;;;;;5.22;100.00;98011.56;18286353;32;20362;-63
2022/11/27 16:30:03;;;;;;;17.40;8.90;;;;;;;5.20;100.00;98013.69;18299511;32;20077;-63
2022/11/27 16:40:07;;;;;;;14.63;8.33;;;;;;;5.18;100.00;98005.03;18299119;32;20133;-63
2022/11/27 16:50:13;;;;;;;14.30;8.87;;;;;;;5.15;100.00;97994.78;18298820;32;20062;-63
2022/11/27 17:00:16;;;;;;;13.97;8.27;;;;;;;5.12;100.00;97984.50;18298141;32;20046;-63
2022/11/27 17:10:19;;;;;;;14.60;8.70;;;;;;;5.12;100.00;97963.06;18297657;32;20062;-63
2022/11/27 17:20:23;;;;;;;14.40;9.20;;;;;;;5.12;100.00;97938.94;18297149;32;20413;-63
2022/11/27 17:30:26;;;;;;;15.50;9.00;;;;;;;5.06;100.00;97908.50;18296625;32;20077;-63
2022/11/27 17:40:29;;;;;;;13.80;7.63;;;;;;;4.94;100.00;97886.22;18282900;32;20105;-63
2022/11/27 17:50:32;;;;;;;13.17;8.57;;;;;;;4.97;100.00;97867.81;18295228;32;20430;-63
2022/11/27 18:00:38;;;;;;;13.67;7.30;;;;;;;4.93;100.00;97855.91;18295018;32;20449;-63
2022/11/27 18:10:41;;;;;;;13.00;7.47;;;;;;;4.93;100.00;97837.16;18295396;32;20110;-63
2022/11/27 18:20:45;;;;;;;12.90;8.10;;;;;;;4.98;100.00;97820.41;18280959;32;20121;-63
2022/11/27 18:30:48;;;;;;;13.30;8.17;;;;;;;5.02;100.00;97818.91;18294144;32;20066;-63
2022/11/27 18:40:51;;;;;;;10.67;6.83;;;;;;;5.11;100.00;97816.69;18293844;32;20350;-63
2022/11/27 18:51:09;;;;;;;13.50;7.60;;;;;;;5.13;100.00;97782.44;18293558;32;20057;-63
2022/11/27 19:01:15;;;;;;;11.37;7.90;;;;;;;5.12;100.00;97807.59;18229601;32;20062;-63
2022/11/27 19:11:22;;;;;;;11.83;7.30;;;;;;;5.08;100.00;97789.31;18240902;32;20072;-63
2022/11/27 19:21:29;;;;;;;13.30;8.30;;;;;;;5.14;100.00;97771.47;18239926;32;20047;-63
2022/11/27 19:31:33;;;;;;;13.10;8.10;;;;;;;5.14;100.00;97776.00;18239511;32;20059;-63
2022/11/27 19:41:36;;;;;;;12.73;7.60;;;;;;;5.13;100.00;97763.69;18239016;32;20438;-63
2022/11/27 19:51:39;;;;;;;12.90;7.67;;;;;;;5.18;100.00;97767.28;18238820;32;20106;-63
2022/11/27 20:01:42;;;;;;;10.63;6.83;;;;;;;5.21;100.00;97760.66;18236965;32;20063;-63
2022/11/27 20:11:47;;;;;;;11.57;7.20;;;;;;;5.13;100.00;97736.87;18237918;32;20073;-63
2022/11/27 20:21:50;;;;;;;13.27;8.07;;;;;;;5.07;100.00;97714.47;18236771;32;20054;-63
2022/11/27 20:31:53;;;;;;;12.10;6.53;;;;;;;4.91;100.00;97707.97;18237027;32;20080;-63
2022/11/27 20:41:56;;;;;;;12.50;7.13;;;;;;;4.76;100.00;97692.34;18236429;32;20366;-63
2022/11/27 20:52:02;;;;;;;10.77;6.47;;;;;;;4.66;100.00;97676.84;18236150;32;20067;-63
2022/11/27 21:02:04;;;;;;;13.93;7.97;;;;;;;4.67;100.00;97691.03;18296044;32;20060;-63
2022/11/27 21:12:09;;;;;;;12.93;7.90;;;;;;;4.70;100.00;97691.41;18297969;32;20054;-63
2022/11/27 21:22:13;;;;;;;12.37;7.57;;;;;;;4.80;100.00;97687.34;18297461;32;20094;-63
2022/11/27 21:32:21;;;;;;;13.40;8.17;;;;;;;4.87;100.00;97671.97;18296704;32;20109;-63
2022/11/27 21:42:24;;;;;;;12.03;8.17;;;;;;;4.91;100.00;97654.37;18296906;32;20374;-63
2022/11/27 21:52:28;;;;;;;13.33;8.77;;;;;;;4.90;100.00;97642.81;18295508;32;20067;-63
2022/11/27 22:02:31;;;;;;;13.30;7.60;;;;;;;4.90;100.00;97628.63;18282500;32;20426;-63
2022/11/27 22:12:35;;;;;;;12.17;8.30;;;;;;;4.85;100.00;97613.25;18281849;32;20426;-63
2022/11/27 22:22:38;;;;;;;12.10;8.03;;;;;;;4.75;100.00;97619.22;18294998;32;20094;-63
2022/11/27 22:32:41;;;;;;;11.37;7.37;;;;;;;4.72;100.00;97611.62;18280243;32;20403;-63
2022/11/27 22:42:44;;;;;;;12.37;8.33;;;;;;;4.71;100.00;97610.03;18301681;32;20049;-63
2022/11/27 22:52:47;;;;;;;13.40;6.83;;;;;;;4.72;100.00;97602.78;18304444;32;20359;-63
2022/11/27 23:02:49;;;;;;;11.77;7.70;;;;;;;4.66;100.00;97596.50;18304110;32;20110;-63
2022/11/27 23:12:52;;;;;;;10.17;6.97;;;;;;;4.66;100.00;97593.81;18303850;32;20054;-63
2022/11/27 23:22:56;;;;;;;11.63;7.70;;;;;;;4.68;100.00;97594.38;18303448;32;20057;-63
2022/11/27 23:32:58;;;;;;;11.53;7.57;;;;;;;4.70;100.00;97592.31;18289245;32;20157;-63
2022/11/27 23:43:01;;;;;;;14.00;8.57;;;;;;;4.75;100.00;97578.19;18302140;32;20066;-63
2022/11/27 23:53:03;;;;;;;11.50;8.07;;;;;;;4.79;100.00;97581.25;18300591;32;20055;-63
